Terminal Aerodrome Forecast
Issued by NWS

Home | Current Version | Previous Version | Text Only | Print | Product List | Glossary On
Versions: 1 2 3 4 5 6 7 8 9 10 11 12 13 14 15 16
000
FTUS46 KSEW 252300
TAFPAE
TAF
KPAE 252335Z 2600/2624 26005KT P6SM BKN025 OVC040
     FM260500 VRB03KT P6SM SCT015 BKN020 OVC040
     FM261400 VRB03KT P6SM BKN015 OVC025
     FM261800 24005KT P6SM SCT015 BKN025
     FM262200 31005KT P6SM SCT025 BKN045=

USA.gov is the U.S. government's official web portal to all federal, state and local government web resources and services.